createdAt,value
2018-12-24T00:02:37.504Z,6.77
2018-12-24T00:07:46.535Z,6.81
2018-12-24T00:12:54.832Z,6.80
2018-12-24T00:18:07.748Z,6.76
2018-12-24T00:23:18.578Z,6.77
2018-12-24T00:28:26.659Z,6.72
2018-12-24T00:33:43.364Z,6.71
2018-12-24T00:38:56.074Z,6.72
2018-12-24T00:44:07.715Z,6.64
2018-12-24T00:49:20.326Z,6.79
2018-12-24T00:54:31.503Z,6.80
2018-12-24T00:59:40.128Z,6.85
2018-12-24T01:04:53.667Z,6.90
2018-12-24T01:10:02.019Z,6.81
2018-12-24T01:15:10.623Z,6.69
2018-12-24T01:20:20.572Z,6.64
2018-12-24T01:25:28.286Z,6.61
2018-12-24T01:30:39.986Z,6.59
2018-12-24T01:35:52.480Z,6.60
2018-12-24T01:41:01.698Z,6.52
2018-12-24T01:46:13.381Z,6.54
2018-12-24T01:51:23.720Z,6.52
2018-12-24T01:56:34.535Z,6.55
2018-12-24T02:01:47.238Z,6.68
2018-12-24T02:06:59.949Z,6.74
2018-12-24T02:12:12.577Z,6.75
2018-12-24T02:17:21.653Z,6.71
2018-12-24T02:22:34.414Z,6.64
2018-12-24T02:27:46.085Z,6.68
2018-12-24T02:32:56.981Z,6.70
2018-12-24T02:38:09.644Z,6.71
2018-12-24T02:43:24.962Z,6.61
2018-12-24T02:48:35.788Z,6.46
2018-12-24T02:53:48.359Z,6.34
2018-12-24T02:58:57.989Z,6.23
2018-12-24T03:04:06.611Z,6.17
2018-12-24T03:09:22.310Z,6.08
2018-12-24T03:14:31.248Z,6.05
2018-12-24T03:19:42.213Z,5.92
2018-12-24T03:24:54.977Z,5.91
2018-12-24T03:30:05.067Z,6.09
2018-12-24T03:35:12.398Z,6.27
2018-12-24T03:40:21.380Z,6.34
2018-12-24T03:45:30.750Z,6.21
2018-12-24T03:50:42.737Z,6.19
2018-12-24T03:55:51.687Z,6.17
2018-12-24T04:01:01.602Z,6.22
2018-12-24T04:06:11.495Z,6.26
2018-12-24T04:11:26.766Z,6.25
2018-12-24T04:16:33.741Z,6.27
2018-12-24T04:21:43.851Z,6.27
2018-12-24T04:26:53.839Z,6.24
2018-12-24T04:32:07.365Z,6.20
2018-12-24T04:37:15.865Z,6.25
2018-12-24T04:42:22.701Z,6.20
2018-12-24T04:47:31.460Z,6.03
2018-12-24T04:52:46.472Z,5.92
2018-12-24T04:57:59.904Z,5.75
2018-12-24T05:03:13.262Z,5.82
2018-12-24T05:08:24.036Z,5.82
2018-12-24T05:13:40.810Z,5.88
2018-12-24T05:18:46.630Z,6.08
2018-12-24T05:25:27.380Z,6.15
2018-12-24T05:30:36.360Z,6.28
2018-12-24T05:35:46.535Z,6.32
2018-12-24T05:40:57.318Z,6.24
2018-12-24T05:46:06.238Z,6.22
2018-12-24T05:51:13.261Z,6.21
2018-12-24T05:56:24.452Z,6.31
2018-12-24T06:01:39.360Z,6.30
2018-12-24T06:06:48.752Z,6.35
2018-12-24T06:12:02.351Z,6.41
2018-12-24T06:17:15.191Z,6.43
2018-12-24T06:22:26.804Z,6.49
2018-12-24T06:27:40.295Z,6.42
2018-12-24T06:32:52.934Z,6.40
2018-12-24T06:38:09.447Z,6.37
2018-12-24T06:43:18.465Z,6.41
2018-12-24T06:48:28.626Z,6.48
2018-12-24T06:53:37.910Z,6.54
2018-12-24T06:58:45.149Z,6.55
2018-12-24T07:03:56.707Z,6.58
2018-12-24T07:09:06.849Z,6.57
2018-12-24T07:14:15.817Z,6.52
2018-12-24T07:19:28.843Z,6.61
2018-12-24T07:24:37.816Z,6.62
2018-12-24T07:29:50.186Z,6.57
2018-12-24T07:34:59.564Z,6.58
2018-12-24T07:40:06.405Z,6.54
2018-12-24T07:45:15.389Z,6.44
2018-12-24T07:50:31.105Z,6.31
2018-12-24T07:55:43.753Z,6.01
2018-12-24T08:00:57.253Z,5.78
2018-12-24T08:06:05.514Z,5.64
2018-12-24T08:11:19.050Z,5.54
2018-12-24T08:16:36.073Z,5.46
2018-12-24T08:21:42.605Z,5.34
2018-12-24T08:26:53.796Z,5.30
2018-12-24T08:32:06.082Z,5.22
2018-12-24T08:37:18.539Z,5.21
2018-12-24T08:42:35.526Z,5.21
2018-12-24T08:47:46.271Z,5.32
2018-12-24T08:52:56.995Z,5.45
2018-12-24T08:58:05.933Z,5.46
2018-12-24T09:03:19.274Z,5.65
2018-12-24T09:08:27.629Z,5.72
2018-12-24T09:13:33.726Z,5.85
2018-12-24T09:18:45.345Z,5.96
2018-12-24T09:23:52.700Z,6.45
2018-12-24T09:29:02.689Z,7.13
2018-12-24T09:34:14.341Z,7.90
2018-12-24T09:39:25.093Z,8.80
2018-12-24T09:44:36.897Z,9.73
2018-12-24T09:49:44.655Z,10.08
2018-12-24T09:54:52.338Z,11.39
2018-12-24T10:00:04.009Z,12.15
2018-12-24T10:05:13.222Z,12.47
2018-12-24T10:10:29.923Z,12.78
2018-12-24T10:15:40.591Z,13.48
2018-12-24T10:20:54.981Z,14.35
2018-12-24T10:26:12.218Z,15.14
2018-12-24T10:31:26.956Z,15.52
2018-12-24T10:36:35.167Z,16.27
2018-12-24T10:47:15.065Z,16.98
2018-12-24T10:52:23.110Z,17.03
2018-12-24T10:57:35.717Z,17.24
2018-12-24T11:02:49.222Z,17.16
2018-12-24T11:08:02.532Z,17.09
2018-12-24T11:13:17.820Z,16.74
2018-12-24T11:18:31.202Z,17.59
2018-12-24T11:23:43.809Z,17.97
2018-12-24T11:28:55.617Z,18.21
2018-12-24T11:34:05.220Z,18.29
2018-12-24T11:39:16.934Z,18.42
2018-12-24T11:44:30.412Z,18.70
2018-12-24T11:49:40.999Z,17.85
2018-12-24T11:54:53.634Z,17.85
2018-12-24T12:00:05.635Z,18.73
2018-12-24T12:05:18.467Z,20.23
2018-12-24T12:10:31.041Z,17.44
2018-12-24T12:15:43.151Z,17.73
2018-12-24T12:20:54.299Z,18.70
2018-12-24T12:26:04.163Z,19.06
2018-12-24T12:31:14.053Z,19.47
2018-12-24T12:36:24.497Z,20.05
2018-12-24T12:41:40.523Z,21.57
2018-12-24T12:46:48.469Z,20.91
2018-12-24T12:51:59.173Z,21.78
2018-12-24T12:57:10.360Z,21.81
2018-12-24T13:02:18.996Z,22.72
2018-12-24T13:07:28.995Z,23.43
2018-12-24T13:12:42.594Z,23.36
2018-12-24T13:17:51.768Z,24.01
2018-12-24T13:23:00.770Z,23.64
2018-12-24T13:28:09.232Z,23.64
2018-12-24T13:33:19.233Z,23.36
2018-12-24T13:38:31.723Z,23.29
2018-12-24T13:43:42.373Z,23.64
2018-12-24T13:48:53.244Z,23.86
2018-12-24T13:54:06.372Z,23.89
2018-12-24T13:59:23.970Z,23.89
2018-12-24T14:04:32.419Z,23.80
2018-12-24T14:09:45.123Z,22.89
2018-12-24T14:14:54.963Z,22.36
2018-12-24T14:20:04.385Z,19.59
2018-12-24T14:25:19.855Z,17.60
2018-12-24T14:30:29.817Z,16.57
2018-12-24T14:35:38.693Z,15.80
2018-12-24T14:40:49.036Z,15.14
2018-12-24T14:46:02.371Z,14.71
2018-12-24T14:51:10.469Z,14.40
2018-12-24T14:56:21.507Z,14.21
2018-12-24T15:01:33.226Z,13.91
2018-12-24T15:06:41.746Z,13.66
2018-12-24T15:11:59.532Z,13.42
2018-12-24T15:17:09.923Z,13.17
2018-12-24T15:22:19.850Z,12.95
2018-12-24T15:27:33.609Z,12.66
2018-12-24T15:32:48.996Z,12.49
2018-12-24T15:37:59.027Z,12.26
2018-12-24T15:43:09.796Z,11.80
2018-12-24T15:48:17.602Z,11.69
2018-12-24T15:53:24.942Z,11.49
2018-12-24T15:58:35.433Z,11.32
2018-12-24T16:03:49.046Z,10.97
2018-12-24T16:09:03.338Z,10.65
2018-12-24T16:14:16.898Z,10.49
2018-12-24T16:19:26.908Z,10.23
2018-12-24T16:24:42.721Z,9.95
2018-12-24T16:29:56.104Z,9.71
2018-12-24T16:35:05.096Z,9.51
2018-12-24T16:40:18.043Z,9.38
2018-12-24T16:45:33.516Z,9.21
2018-12-24T16:50:47.114Z,9.02
2018-12-24T16:55:54.908Z,8.92
2018-12-24T17:01:06.393Z,8.74
2018-12-24T17:06:22.370Z,8.63
2018-12-24T17:11:32.490Z,8.68
2018-12-24T17:16:43.398Z,8.67
2018-12-24T17:21:51.676Z,8.63
2018-12-24T17:27:03.540Z,8.43
2018-12-24T17:32:17.060Z,8.25
2018-12-24T17:37:26.006Z,8.16
2018-12-24T17:42:35.841Z,8.15
2018-12-24T17:47:48.456Z,8.25
2018-12-24T17:53:00.068Z,8.29
2018-12-24T17:58:10.695Z,8.30
2018-12-24T18:03:21.629Z,8.21
2018-12-24T18:08:32.526Z,8.22
2018-12-24T18:13:41.509Z,8.23
2018-12-24T18:18:56.879Z,8.01
2018-12-24T18:24:05.169Z,7.98
2018-12-24T18:29:18.023Z,7.89
2018-12-24T18:34:30.660Z,8.02
2018-12-24T18:39:39.791Z,7.96
2018-12-24T18:44:51.507Z,7.97
2018-12-24T18:50:00.402Z,7.96
2018-12-24T18:55:10.734Z,8.01
2018-12-24T19:00:25.257Z,7.99
2018-12-24T19:05:33.537Z,7.89
2018-12-24T19:10:40.942Z,7.84
2018-12-24T19:15:48.235Z,7.85
2018-12-24T19:21:02.086Z,7.75
2018-12-24T19:26:13.754Z,7.76
2018-12-24T19:31:22.988Z,7.72
2018-12-24T19:36:32.931Z,7.44
2018-12-24T19:41:43.033Z,7.37
2018-12-24T19:46:50.490Z,7.43
2018-12-24T19:51:58.738Z,7.56
2018-12-24T19:57:08.590Z,7.45
2018-12-24T20:02:19.269Z,7.32
2018-12-24T20:07:32.375Z,7.33
2018-12-24T20:12:47.626Z,7.17
2018-12-24T20:17:58.561Z,7.01
2018-12-24T20:23:08.913Z,6.96
2018-12-24T20:28:19.564Z,7.08
2018-12-24T20:33:31.755Z,7.14
2018-12-24T20:38:44.389Z,7.25
2018-12-24T20:43:57.706Z,7.03
2018-12-24T20:49:05.533Z,7.06
2018-12-24T20:54:19.220Z,6.97
2018-12-24T20:59:27.557Z,6.96
2018-12-24T21:04:37.477Z,6.81
2018-12-24T21:09:44.342Z,6.91
2018-12-24T21:14:59.222Z,6.89
2018-12-24T21:20:11.181Z,6.95
2018-12-24T21:25:18.833Z,6.98
2018-12-24T21:30:27.965Z,6.97
2018-12-24T21:35:42.384Z,6.95
2018-12-24T21:40:54.861Z,6.92
2018-12-24T21:46:05.674Z,6.80
2018-12-24T21:51:16.553Z,6.77
2018-12-24T21:56:30.184Z,6.95
2018-12-24T22:01:37.957Z,7.05
2018-12-24T22:06:48.744Z,6.88
2018-12-24T22:12:00.387Z,6.73
2018-12-24T22:17:10.188Z,6.61
2018-12-24T22:22:19.102Z,6.54
2018-12-24T22:27:34.436Z,6.41
2018-12-24T22:32:42.678Z,6.22
2018-12-24T22:37:56.194Z,6.08
2018-12-24T22:43:06.270Z,6.13
2018-12-24T22:48:15.042Z,6.03
2018-12-24T22:53:27.309Z,6.06
2018-12-24T22:58:38.019Z,6.00
2018-12-24T23:03:55.241Z,6.10
2018-12-24T23:09:08.343Z,6.22
2018-12-24T23:14:17.317Z,6.28
2018-12-24T23:19:27.462Z,6.14
2018-12-24T23:24:35.617Z,5.97
2018-12-24T23:29:48.195Z,5.94
2018-12-24T23:35:01.671Z,6.14
2018-12-24T23:40:16.137Z,6.10
2018-12-24T23:45:25.921Z,6.15
2018-12-24T23:50:33.995Z,6.01
2018-12-24T23:55:46.540Z,5.84
